sensor_id;sensor_type;location;lat;lon;timestamp;P1;durP1;ratioP1;P2;durP2;ratioP2
52962;SDS011;38827;53.024;6.596;2023-07-29T00:00:42;12.90;;;8.47;;
52962;SDS011;38827;53.024;6.596;2023-07-29T00:03:09;8.63;;;7.60;;
52962;SDS011;38827;53.024;6.596;2023-07-29T00:05:35;11.23;;;8.47;;
52962;SDS011;38827;53.024;6.596;2023-07-29T00:08:02;11.65;;;8.30;;
52962;SDS011;38827;53.024;6.596;2023-07-29T00:10:28;11.93;;;9.30;;
52962;SDS011;38827;53.024;6.596;2023-07-29T00:12:57;12.20;;;8.75;;
52962;SDS011;38827;53.024;6.596;2023-07-29T00:15:23;12.77;;;8.85;;
52962;SDS011;38827;53.024;6.596;2023-07-29T00:17:49;12.38;;;8.60;;
52962;SDS011;38827;53.024;6.596;2023-07-29T00:20:14;11.45;;;9.00;;
52962;SDS011;38827;53.024;6.596;2023-07-29T00:22:40;11.23;;;8.82;;
52962;SDS011;38827;53.024;6.596;2023-07-29T00:25:06;12.02;;;9.30;;
52962;SDS011;38827;53.024;6.596;2023-07-29T00:27:32;12.43;;;9.00;;
52962;SDS011;38827;53.024;6.596;2023-07-29T00:32:25;14.63;;;9.93;;
52962;SDS011;38827;53.024;6.596;2023-07-29T00:34:52;12.68;;;9.15;;
52962;SDS011;38827;53.024;6.596;2023-07-29T00:37:17;10.32;;;8.55;;
52962;SDS011;38827;53.024;6.596;2023-07-29T00:39:43;13.80;;;10.38;;
52962;SDS011;38827;53.024;6.596;2023-07-29T00:42:09;14.00;;;9.68;;
52962;SDS011;38827;53.024;6.596;2023-07-29T00:44:35;11.48;;;9.05;;
52962;SDS011;38827;53.024;6.596;2023-07-29T00:47:01;10.88;;;9.07;;
52962;SDS011;38827;53.024;6.596;2023-07-29T00:49:27;11.65;;;9.70;;
52962;SDS011;38827;53.024;6.596;2023-07-29T00:51:54;12.77;;;9.20;;
52962;SDS011;38827;53.024;6.596;2023-07-29T00:54:20;13.57;;;9.30;;
52962;SDS011;38827;53.024;6.596;2023-07-29T00:56:45;11.05;;;9.13;;
52962;SDS011;38827;53.024;6.596;2023-07-29T00:59:11;11.35;;;9.13;;
52962;SDS011;38827;53.024;6.596;2023-07-29T01:01:37;11.70;;;9.15;;
52962;SDS011;38827;53.024;6.596;2023-07-29T01:04:04;12.10;;;9.00;;
52962;SDS011;38827;53.024;6.596;2023-07-29T01:14:51;10.75;;;8.10;;
52962;SDS011;38827;53.024;6.596;2023-07-29T01:17:26;11.10;;;8.25;;
52962;SDS011;38827;53.024;6.596;2023-07-29T01:20:16;9.20;;;7.85;;
52962;SDS011;38827;53.024;6.596;2023-07-29T01:22:45;10.65;;;8.48;;
52962;SDS011;38827;53.024;6.596;2023-07-29T01:25:12;12.75;;;7.68;;
52962;SDS011;38827;53.024;6.596;2023-07-29T01:27:38;9.60;;;8.38;;
52962;SDS011;38827;53.024;6.596;2023-07-29T01:30:07;11.43;;;8.35;;
52962;SDS011;38827;53.024;6.596;2023-07-29T01:37:34;10.30;;;7.45;;
52962;SDS011;38827;53.024;6.596;2023-07-29T01:40:02;9.02;;;7.70;;
52962;SDS011;38827;53.024;6.596;2023-07-29T01:42:30;10.98;;;7.75;;
52962;SDS011;38827;53.024;6.596;2023-07-29T01:44:56;11.02;;;8.13;;
52962;SDS011;38827;53.024;6.596;2023-07-29T01:47:22;10.23;;;8.25;;
52962;SDS011;38827;53.024;6.596;2023-07-29T01:49:48;11.20;;;7.60;;
52962;SDS011;38827;53.024;6.596;2023-07-29T01:52:13;10.48;;;7.82;;
52962;SDS011;38827;53.024;6.596;2023-07-29T01:54:39;9.88;;;7.78;;
52962;SDS011;38827;53.024;6.596;2023-07-29T01:57:05;11.20;;;7.70;;
52962;SDS011;38827;53.024;6.596;2023-07-29T01:59:30;12.20;;;7.43;;
52962;SDS011;38827;53.024;6.596;2023-07-29T02:01:56;10.85;;;7.50;;
52962;SDS011;38827;53.024;6.596;2023-07-29T02:04:22;11.63;;;6.85;;
52962;SDS011;38827;53.024;6.596;2023-07-29T02:06:47;9.35;;;7.65;;
52962;SDS011;38827;53.024;6.596;2023-07-29T02:09:13;9.98;;;7.50;;
52962;SDS011;38827;53.024;6.596;2023-07-29T02:11:39;8.15;;;7.35;;
52962;SDS011;38827;53.024;6.596;2023-07-29T02:14:04;8.68;;;7.53;;
52962;SDS011;38827;53.024;6.596;2023-07-29T02:16:30;9.85;;;6.75;;
52962;SDS011;38827;53.024;6.596;2023-07-29T02:21:23;8.37;;;6.37;;
52962;SDS011;38827;53.024;6.596;2023-07-29T02:23:48;9.35;;;7.28;;
52962;SDS011;38827;53.024;6.596;2023-07-29T02:26:14;7.82;;;6.55;;
52962;SDS011;38827;53.024;6.596;2023-07-29T02:28:41;7.05;;;6.35;;
52962;SDS011;38827;53.024;6.596;2023-07-29T02:31:14;8.85;;;6.50;;
52962;SDS011;38827;53.024;6.596;2023-07-29T02:33:45;8.27;;;6.88;;
52962;SDS011;38827;53.024;6.596;2023-07-29T02:36:11;10.13;;;7.03;;
52962;SDS011;38827;53.024;6.596;2023-07-29T02:38:38;7.13;;;6.10;;
52962;SDS011;38827;53.024;6.596;2023-07-29T02:43:58;9.07;;;6.40;;
52962;SDS011;38827;53.024;6.596;2023-07-29T02:46:36;8.05;;;6.28;;
52962;SDS011;38827;53.024;6.596;2023-07-29T02:49:02;10.23;;;6.78;;
52962;SDS011;38827;53.024;6.596;2023-07-29T02:57:57;8.55;;;5.55;;
52962;SDS011;38827;53.024;6.596;2023-07-29T03:00:22;9.32;;;5.75;;
52962;SDS011;38827;53.024;6.596;2023-07-29T03:02:49;7.30;;;5.63;;
52962;SDS011;38827;53.024;6.596;2023-07-29T03:08:01;7.40;;;5.63;;
52962;SDS011;38827;53.024;6.596;2023-07-29T03:10:26;10.93;;;6.32;;
52962;SDS011;38827;53.024;6.596;2023-07-29T03:12:56;8.38;;;6.15;;
52962;SDS011;38827;53.024;6.596;2023-07-29T03:15:25;7.32;;;5.53;;
52962;SDS011;38827;53.024;6.596;2023-07-29T03:17:51;9.18;;;5.80;;
52962;SDS011;38827;53.024;6.596;2023-07-29T03:20:17;7.53;;;5.72;;
52962;SDS011;38827;53.024;6.596;2023-07-29T03:22:44;9.00;;;5.38;;
52962;SDS011;38827;53.024;6.596;2023-07-29T03:25:10;8.05;;;4.97;;
52962;SDS011;38827;53.024;6.596;2023-07-29T03:27:36;8.38;;;5.25;;
52962;SDS011;38827;53.024;6.596;2023-07-29T03:30:05;8.52;;;4.93;;
52962;SDS011;38827;53.024;6.596;2023-07-29T03:32:32;10.38;;;5.38;;
52962;SDS011;38827;53.024;6.596;2023-07-29T03:34:58;7.80;;;4.60;;
52962;SDS011;38827;53.024;6.596;2023-07-29T03:37:23;8.23;;;4.93;;
52962;SDS011;38827;53.024;6.596;2023-07-29T03:39:49;10.00;;;5.35;;
52962;SDS011;38827;53.024;6.596;2023-07-29T03:42:17;7.90;;;4.85;;
52962;SDS011;38827;53.024;6.596;2023-07-29T03:44:43;7.10;;;4.63;;
52962;SDS011;38827;53.024;6.596;2023-07-29T03:47:08;9.23;;;4.32;;
52962;SDS011;38827;53.024;6.596;2023-07-29T03:49:34;7.85;;;4.70;;
52962;SDS011;38827;53.024;6.596;2023-07-29T03:52:00;8.10;;;4.53;;
52962;SDS011;38827;53.024;6.596;2023-07-29T03:54:25;5.40;;;4.30;;
52962;SDS011;38827;53.024;6.596;2023-07-29T03:56:51;7.50;;;4.32;;
52962;SDS011;38827;53.024;6.596;2023-07-29T03:59:16;7.18;;;4.50;;
52962;SDS011;38827;53.024;6.596;2023-07-29T04:01:42;7.90;;;4.65;;
52962;SDS011;38827;53.024;6.596;2023-07-29T04:04:08;7.97;;;5.20;;
52962;SDS011;38827;53.024;6.596;2023-07-29T04:06:33;8.77;;;4.78;;
52962;SDS011;38827;53.024;6.596;2023-07-29T04:08:59;6.45;;;5.45;;
52962;SDS011;38827;53.024;6.596;2023-07-29T04:11:25;7.53;;;5.03;;
52962;SDS011;38827;53.024;6.596;2023-07-29T04:13:51;10.90;;;5.00;;
52962;SDS011;38827;53.024;6.596;2023-07-29T04:16:16;6.93;;;5.32;;
52962;SDS011;38827;53.024;6.596;2023-07-29T04:18:42;7.70;;;5.10;;
52962;SDS011;38827;53.024;6.596;2023-07-29T04:21:08;9.52;;;5.65;;
52962;SDS011;38827;53.024;6.596;2023-07-29T04:23:33;9.13;;;5.18;;
52962;SDS011;38827;53.024;6.596;2023-07-29T04:26:00;10.90;;;5.63;;
52962;SDS011;38827;53.024;6.596;2023-07-29T04:28:26;9.57;;;5.50;;
52962;SDS011;38827;53.024;6.596;2023-07-29T04:30:52;7.80;;;5.25;;
52962;SDS011;38827;53.024;6.596;2023-07-29T04:33:32;6.85;;;4.75;;
52962;SDS011;38827;53.024;6.596;2023-07-29T04:36:09;6.47;;;4.53;;
52962;SDS011;38827;53.024;6.596;2023-07-29T04:41:22;7.72;;;4.65;;
52962;SDS011;38827;53.024;6.596;2023-07-29T04:46:50;6.47;;;4.60;;
52962;SDS011;38827;53.024;6.596;2023-07-29T04:49:24;8.18;;;4.30;;
52962;SDS011;38827;53.024;6.596;2023-07-29T04:51:52;6.97;;;4.32;;
52962;SDS011;38827;53.024;6.596;2023-07-29T04:54:18;5.88;;;4.43;;
52962;SDS011;38827;53.024;6.596;2023-07-29T04:57:15;6.72;;;4.18;;
52962;SDS011;38827;53.024;6.596;2023-07-29T04:59:56;5.75;;;3.83;;
52962;SDS011;38827;53.024;6.596;2023-07-29T05:02:22;6.03;;;3.88;;
52962;SDS011;38827;53.024;6.596;2023-07-29T05:05:08;7.30;;;3.45;;
52962;SDS011;38827;53.024;6.596;2023-07-29T05:07:34;5.95;;;3.50;;
52962;SDS011;38827;53.024;6.596;2023-07-29T05:10:26;6.68;;;3.58;;
52962;SDS011;38827;53.024;6.596;2023-07-29T05:12:58;4.60;;;3.45;;
52962;SDS011;38827;53.024;6.596;2023-07-29T05:15:23;5.10;;;3.33;;
52962;SDS011;38827;53.024;6.596;2023-07-29T05:17:49;5.50;;;3.72;;
52962;SDS011;38827;53.024;6.596;2023-07-29T05:20:20;6.78;;;3.60;;
52962;SDS011;38827;53.024;6.596;2023-07-29T05:22:46;6.75;;;3.33;;
52962;SDS011;38827;53.024;6.596;2023-07-29T05:25:23;5.95;;;3.60;;
52962;SDS011;38827;53.024;6.596;2023-07-29T05:28:01;4.68;;;3.30;;
52962;SDS011;38827;53.024;6.596;2023-07-29T05:30:28;5.60;;;3.33;;
52962;SDS011;38827;53.024;6.596;2023-07-29T05:33:29;5.50;;;3.30;;
52962;SDS011;38827;53.024;6.596;2023-07-29T05:36:07;5.43;;;3.67;;
52962;SDS011;38827;53.024;6.596;2023-07-29T05:38:42;5.53;;;2.95;;
52962;SDS011;38827;53.024;6.596;2023-07-29T05:41:07;6.10;;;3.13;;
52962;SDS011;38827;53.024;6.596;2023-07-29T05:43:42;4.57;;;3.25;;
52962;SDS011;38827;53.024;6.596;2023-07-29T05:46:17;4.30;;;3.20;;
52962;SDS011;38827;53.024;6.596;2023-07-29T05:48:45;5.47;;;3.03;;
52962;SDS011;38827;53.024;6.596;2023-07-29T05:51:11;6.80;;;2.95;;
52962;SDS011;38827;53.024;6.596;2023-07-29T05:53:36;5.15;;;3.10;;
52962;SDS011;38827;53.024;6.596;2023-07-29T05:56:02;5.57;;;3.03;;
52962;SDS011;38827;53.024;6.596;2023-07-29T05:58:28;5.10;;;2.72;;
52962;SDS011;38827;53.024;6.596;2023-07-29T06:00:56;6.03;;;3.13;;
52962;SDS011;38827;53.024;6.596;2023-07-29T06:03:22;4.63;;;3.22;;
52962;SDS011;38827;53.024;6.596;2023-07-29T06:05:50;5.13;;;2.60;;
52962;SDS011;38827;53.024;6.596;2023-07-29T06:08:16;5.18;;;2.60;;
52962;SDS011;38827;53.024;6.596;2023-07-29T06:10:42;4.65;;;2.65;;
52962;SDS011;38827;53.024;6.596;2023-07-29T06:13:07;6.90;;;2.90;;
52962;SDS011;38827;53.024;6.596;2023-07-29T06:15:33;3.70;;;2.38;;
52962;SDS011;38827;53.024;6.596;2023-07-29T06:17:59;3.47;;;2.40;;
52962;SDS011;38827;53.024;6.596;2023-07-29T06:20:24;4.43;;;2.70;;
52962;SDS011;38827;53.024;6.596;2023-07-29T06:22:50;7.40;;;3.17;;
52962;SDS011;38827;53.024;6.596;2023-07-29T06:25:15;5.38;;;3.10;;
52962;SDS011;38827;53.024;6.596;2023-07-29T06:27:41;4.70;;;3.22;;
52962;SDS011;38827;53.024;6.596;2023-07-29T06:30:07;6.57;;;3.15;;
52962;SDS011;38827;53.024;6.596;2023-07-29T06:32:33;6.32;;;2.65;;
52962;SDS011;38827;53.024;6.596;2023-07-29T06:34:59;5.70;;;3.17;;
52962;SDS011;38827;53.024;6.596;2023-07-29T06:37:25;7.50;;;2.97;;
52962;SDS011;38827;53.024;6.596;2023-07-29T06:39:50;7.38;;;3.20;;
52962;SDS011;38827;53.024;6.596;2023-07-29T06:42:16;7.40;;;2.78;;
52962;SDS011;38827;53.024;6.596;2023-07-29T06:44:42;6.05;;;2.88;;
52962;SDS011;38827;53.024;6.596;2023-07-29T06:47:07;7.40;;;3.00;;
52962;SDS011;38827;53.024;6.596;2023-07-29T06:49:33;6.32;;;3.00;;
52962;SDS011;38827;53.024;6.596;2023-07-29T06:51:58;4.18;;;2.80;;
52962;SDS011;38827;53.024;6.596;2023-07-29T06:54:24;6.93;;;3.00;;
52962;SDS011;38827;53.024;6.596;2023-07-29T06:56:53;5.13;;;2.83;;
52962;SDS011;38827;53.024;6.596;2023-07-29T06:59:18;4.77;;;2.83;;
52962;SDS011;38827;53.024;6.596;2023-07-29T07:01:44;9.15;;;3.38;;
52962;SDS011;38827;53.024;6.596;2023-07-29T07:04:10;8.18;;;2.95;;
52962;SDS011;38827;53.024;6.596;2023-07-29T07:06:35;8.60;;;3.03;;
52962;SDS011;38827;53.024;6.596;2023-07-29T07:09:01;9.17;;;3.83;;
52962;SDS011;38827;53.024;6.596;2023-07-29T07:11:28;6.20;;;3.50;;
52962;SDS011;38827;53.024;6.596;2023-07-29T07:13:54;9.30;;;3.67;;
52962;SDS011;38827;53.024;6.596;2023-07-29T07:16:20;8.10;;;3.90;;
52962;SDS011;38827;53.024;6.596;2023-07-29T07:18:45;6.50;;;3.63;;
52962;SDS011;38827;53.024;6.596;2023-07-29T07:21:14;8.50;;;3.67;;
52962;SDS011;38827;53.024;6.596;2023-07-29T07:23:40;8.63;;;3.50;;
52962;SDS011;38827;53.024;6.596;2023-07-29T07:26:08;6.65;;;3.83;;
52962;SDS011;38827;53.024;6.596;2023-07-29T07:28:34;6.53;;;4.10;;
52962;SDS011;38827;53.024;6.596;2023-07-29T07:30:59;9.10;;;4.07;;
52962;SDS011;38827;53.024;6.596;2023-07-29T07:33:25;6.95;;;3.50;;
52962;SDS011;38827;53.024;6.596;2023-07-29T07:35:51;5.47;;;3.42;;
52962;SDS011;38827;53.024;6.596;2023-07-29T07:38:16;7.43;;;3.67;;
52962;SDS011;38827;53.024;6.596;2023-07-29T07:40:43;7.13;;;4.00;;
52962;SDS011;38827;53.024;6.596;2023-07-29T07:43:21;11.48;;;3.70;;
52962;SDS011;38827;53.024;6.596;2023-07-29T07:45:46;9.27;;;3.80;;
52962;SDS011;38827;53.024;6.596;2023-07-29T07:48:12;7.27;;;3.07;;
52962;SDS011;38827;53.024;6.596;2023-07-29T07:50:38;7.60;;;3.43;;
52962;SDS011;38827;53.024;6.596;2023-07-29T07:53:04;7.03;;;3.70;;
52962;SDS011;38827;53.024;6.596;2023-07-29T07:55:30;4.53;;;3.38;;
52962;SDS011;38827;53.024;6.596;2023-07-29T07:57:56;9.20;;;3.20;;
52962;SDS011;38827;53.024;6.596;2023-07-29T08:21:37;7.75;;;2.67;;
52962;SDS011;38827;53.024;6.596;2023-07-29T08:24:03;5.40;;;3.28;;
52962;SDS011;38827;53.024;6.596;2023-07-29T08:26:29;6.80;;;3.20;;
52962;SDS011;38827;53.024;6.596;2023-07-29T08:28:55;8.57;;;3.10;;
52962;SDS011;38827;53.024;6.596;2023-07-29T08:31:20;5.87;;;3.00;;
52962;SDS011;38827;53.024;6.596;2023-07-29T08:33:46;6.47;;;3.20;;
52962;SDS011;38827;53.024;6.596;2023-07-29T08:36:11;5.53;;;2.83;;
52962;SDS011;38827;53.024;6.596;2023-07-29T08:38:37;7.67;;;2.87;;
52962;SDS011;38827;53.024;6.596;2023-07-29T08:43:46;5.43;;;2.50;;
52962;SDS011;38827;53.024;6.596;2023-07-29T08:46:29;4.28;;;2.47;;
52962;SDS011;38827;53.024;6.596;2023-07-29T08:48:55;6.13;;;2.77;;
52962;SDS011;38827;53.024;6.596;2023-07-29T08:51:22;5.18;;;2.38;;
52962;SDS011;38827;53.024;6.596;2023-07-29T08:53:49;4.32;;;2.17;;
52962;SDS011;38827;53.024;6.596;2023-07-29T08:56:16;7.75;;;2.15;;
52962;SDS011;38827;53.024;6.596;2023-07-29T08:58:42;3.77;;;2.10;;
52962;SDS011;38827;53.024;6.596;2023-07-29T09:01:08;3.07;;;1.97;;
52962;SDS011;38827;53.024;6.596;2023-07-29T09:03:34;4.00;;;1.93;;
52962;SDS011;38827;53.024;6.596;2023-07-29T09:05:59;3.73;;;2.10;;
52962;SDS011;38827;53.024;6.596;2023-07-29T09:08:27;4.53;;;1.98;;
52962;SDS011;38827;53.024;6.596;2023-07-29T09:10:54;6.00;;;2.40;;
52962;SDS011;38827;53.024;6.596;2023-07-29T09:13:23;5.97;;;2.13;;
52962;SDS011;38827;53.024;6.596;2023-07-29T09:15:49;5.72;;;1.95;;
52962;SDS011;38827;53.024;6.596;2023-07-29T09:18:20;4.45;;;1.70;;
52962;SDS011;38827;53.024;6.596;2023-07-29T09:20:46;4.60;;;1.80;;
52962;SDS011;38827;53.024;6.596;2023-07-29T09:23:13;3.75;;;1.75;;
52962;SDS011;38827;53.024;6.596;2023-07-29T09:25:38;4.77;;;1.73;;
52962;SDS011;38827;53.024;6.596;2023-07-29T09:28:12;3.20;;;1.88;;
52962;SDS011;38827;53.024;6.596;2023-07-29T09:30:39;4.35;;;2.10;;
52962;SDS011;38827;53.024;6.596;2023-07-29T09:33:06;5.65;;;2.30;;
52962;SDS011;38827;53.024;6.596;2023-07-29T09:35:33;4.18;;;1.77;;
52962;SDS011;38827;53.024;6.596;2023-07-29T09:38:00;3.90;;;1.58;;
52962;SDS011;38827;53.024;6.596;2023-07-29T09:40:26;3.70;;;1.80;;
52962;SDS011;38827;53.024;6.596;2023-07-29T09:42:53;3.10;;;1.40;;
52962;SDS011;38827;53.024;6.596;2023-07-29T09:45:26;2.92;;;1.58;;
52962;SDS011;38827;53.024;6.596;2023-07-29T09:47:52;4.30;;;1.55;;
52962;SDS011;38827;53.024;6.596;2023-07-29T09:50:20;2.58;;;1.35;;
52962;SDS011;38827;53.024;6.596;2023-07-29T09:52:52;5.15;;;1.58;;
52962;SDS011;38827;53.024;6.596;2023-07-29T09:55:20;3.38;;;1.58;;
52962;SDS011;38827;53.024;6.596;2023-07-29T09:57:47;5.03;;;1.83;;
52962;SDS011;38827;53.024;6.596;2023-07-29T10:00:13;3.33;;;1.80;;
52962;SDS011;38827;53.024;6.596;2023-07-29T10:02:39;5.50;;;1.90;;
52962;SDS011;38827;53.024;6.596;2023-07-29T10:05:06;4.65;;;2.10;;
52962;SDS011;38827;53.024;6.596;2023-07-29T10:07:37;3.20;;;1.58;;
52962;SDS011;38827;53.024;6.596;2023-07-29T10:10:07;4.63;;;1.65;;
52962;SDS011;38827;53.024;6.596;2023-07-29T10:12:34;4.00;;;1.80;;
52962;SDS011;38827;53.024;6.596;2023-07-29T10:15:02;3.22;;;1.52;;
52962;SDS011;38827;53.024;6.596;2023-07-29T10:17:29;5.28;;;2.13;;
52962;SDS011;38827;53.024;6.596;2023-07-29T10:19:58;6.15;;;2.60;;
52962;SDS011;38827;53.024;6.596;2023-07-29T10:22:26;3.53;;;1.83;;
52962;SDS011;38827;53.024;6.596;2023-07-29T10:24:54;4.28;;;1.90;;
52962;SDS011;38827;53.024;6.596;2023-07-29T10:27:25;4.10;;;1.70;;
52962;SDS011;38827;53.024;6.596;2023-07-29T10:29:54;4.70;;;1.80;;
52962;SDS011;38827;53.024;6.596;2023-07-29T10:32:22;5.70;;;2.03;;
52962;SDS011;38827;53.024;6.596;2023-07-29T10:34:52;3.33;;;1.33;;
52962;SDS011;38827;53.024;6.596;2023-07-29T10:37:18;3.85;;;1.33;;
52962;SDS011;38827;53.024;6.596;2023-07-29T10:39:53;4.20;;;1.27;;
52962;SDS011;38827;53.024;6.596;2023-07-29T10:42:22;3.08;;;1.25;;
52962;SDS011;38827;53.024;6.596;2023-07-29T10:44:48;4.30;;;1.50;;
52962;SDS011;38827;53.024;6.596;2023-07-29T10:47:16;4.25;;;1.23;;
52962;SDS011;38827;53.024;6.596;2023-07-29T10:49:44;4.07;;;1.40;;
52962;SDS011;38827;53.024;6.596;2023-07-29T10:52:14;1.83;;;0.88;;
52962;SDS011;38827;53.024;6.596;2023-07-29T10:54:55;1.90;;;1.05;;
52962;SDS011;38827;53.024;6.596;2023-07-29T10:57:33;2.90;;;1.00;;
52962;SDS011;38827;53.024;6.596;2023-07-29T11:00:00;3.45;;;0.95;;
52962;SDS011;38827;53.024;6.596;2023-07-29T11:02:36;3.72;;;1.80;;
52962;SDS011;38827;53.024;6.596;2023-07-29T11:05:23;4.13;;;1.35;;
52962;SDS011;38827;53.024;6.596;2023-07-29T11:07:48;4.07;;;1.23;;
52962;SDS011;38827;53.024;6.596;2023-07-29T11:10:21;2.80;;;1.00;;
52962;SDS011;38827;53.024;6.596;2023-07-29T11:13:02;2.38;;;1.00;;
52962;SDS011;38827;53.024;6.596;2023-07-29T11:15:42;1.92;;;1.20;;
52962;SDS011;38827;53.024;6.596;2023-07-29T11:18:25;3.08;;;0.90;;
52962;SDS011;38827;53.024;6.596;2023-07-29T11:21:08;4.68;;;1.00;;
52962;SDS011;38827;53.024;6.596;2023-07-29T11:23:49;2.05;;;1.30;;
52962;SDS011;38827;53.024;6.596;2023-07-29T11:26:28;3.40;;;1.00;;
52962;SDS011;38827;53.024;6.596;2023-07-29T11:28:53;3.47;;;1.10;;
52962;SDS011;38827;53.024;6.596;2023-07-29T11:31:20;1.88;;;0.98;;
52962;SDS011;38827;53.024;6.596;2023-07-29T11:37:26;2.65;;;1.30;;
52962;SDS011;38827;53.024;6.596;2023-07-29T11:40:17;3.67;;;1.55;;
52962;SDS011;38827;53.024;6.596;2023-07-29T11:42:44;2.38;;;1.13;;
52962;SDS011;38827;53.024;6.596;2023-07-29T11:45:11;3.80;;;1.48;;
52962;SDS011;38827;53.024;6.596;2023-07-29T11:47:38;6.43;;;1.52;;
52962;SDS011;38827;53.024;6.596;2023-07-29T11:50:08;5.13;;;1.50;;
52962;SDS011;38827;53.024;6.596;2023-07-29T11:52:38;3.95;;;1.25;;
52962;SDS011;38827;53.024;6.596;2023-07-29T11:55:06;2.67;;;1.33;;
52962;SDS011;38827;53.024;6.596;2023-07-29T11:57:34;4.68;;;1.90;;
52962;SDS011;38827;53.024;6.596;2023-07-29T12:00:04;5.35;;;1.98;;
52962;SDS011;38827;53.024;6.596;2023-07-29T12:05:21;3.40;;;1.77;;
52962;SDS011;38827;53.024;6.596;2023-07-29T12:07:48;3.78;;;1.80;;
52962;SDS011;38827;53.024;6.596;2023-07-29T12:10:13;3.47;;;1.70;;
52962;SDS011;38827;53.024;6.596;2023-07-29T12:15:31;5.18;;;2.05;;
52962;SDS011;38827;53.024;6.596;2023-07-29T12:21:34;4.95;;;2.03;;
52962;SDS011;38827;53.024;6.596;2023-07-29T12:24:12;4.75;;;1.90;;
52962;SDS011;38827;53.024;6.596;2023-07-29T12:26:47;4.07;;;2.05;;
52962;SDS011;38827;53.024;6.596;2023-07-29T12:29:28;4.18;;;1.88;;
52962;SDS011;38827;53.024;6.596;2023-07-29T12:41:25;6.15;;;1.80;;
52962;SDS011;38827;53.024;6.596;2023-07-29T12:58:01;3.00;;;1.60;;
52962;SDS011;38827;53.024;6.596;2023-07-29T13:00:48;5.13;;;1.50;;
52962;SDS011;38827;53.024;6.596;2023-07-29T13:03:38;4.55;;;1.77;;
52962;SDS011;38827;53.024;6.596;2023-07-29T13:09:07;3.80;;;1.63;;
52962;SDS011;38827;53.024;6.596;2023-07-29T13:11:39;4.97;;;1.85;;
52962;SDS011;38827;53.024;6.596;2023-07-29T13:14:20;3.67;;;1.50;;
52962;SDS011;38827;53.024;6.596;2023-07-29T13:16:58;5.85;;;1.40;;
52962;SDS011;38827;53.024;6.596;2023-07-29T13:19:29;2.40;;;1.20;;
52962;SDS011;38827;53.024;6.596;2023-07-29T13:21:55;2.95;;;0.90;;
52962;SDS011;38827;53.024;6.596;2023-07-29T13:24:21;4.90;;;1.20;;
52962;SDS011;38827;53.024;6.596;2023-07-29T13:36:20;5.18;;;1.52;;
52962;SDS011;38827;53.024;6.596;2023-07-29T13:38:46;3.90;;;1.48;;
52962;SDS011;38827;53.024;6.596;2023-07-29T13:59:23;1.45;;;0.68;;
52962;SDS011;38827;53.024;6.596;2023-07-29T14:02:10;1.02;;;0.50;;
52962;SDS011;38827;53.024;6.596;2023-07-29T14:04:36;3.60;;;0.73;;
52962;SDS011;38827;53.024;6.596;2023-07-29T14:07:12;0.80;;;0.70;;
52962;SDS011;38827;53.024;6.596;2023-07-29T14:12:20;1.95;;;0.70;;
52962;SDS011;38827;53.024;6.596;2023-07-29T14:24:10;2.25;;;0.68;;
52962;SDS011;38827;53.024;6.596;2023-07-29T14:30:00;1.80;;;0.80;;
52962;SDS011;38827;53.024;6.596;2023-07-29T14:32:35;5.75;;;0.70;;
52962;SDS011;38827;53.024;6.596;2023-07-29T14:35:24;2.78;;;0.90;;
52962;SDS011;38827;53.024;6.596;2023-07-29T14:40:51;1.55;;;0.88;;
52962;SDS011;38827;53.024;6.596;2023-07-29T14:49:30;1.40;;;0.77;;
52962;SDS011;38827;53.024;6.596;2023-07-29T15:01:50;1.27;;;0.73;;
52962;SDS011;38827;53.024;6.596;2023-07-29T15:04:22;1.33;;;0.60;;
52962;SDS011;38827;53.024;6.596;2023-07-29T15:07:17;1.95;;;0.60;;
52962;SDS011;38827;53.024;6.596;2023-07-29T15:09:43;1.40;;;0.60;;
52962;SDS011;38827;53.024;6.596;2023-07-29T15:12:23;2.40;;;0.83;;
52962;SDS011;38827;53.024;6.596;2023-07-29T15:15:03;1.52;;;0.65;;
52962;SDS011;38827;53.024;6.596;2023-07-29T15:17:31;3.03;;;0.80;;
52962;SDS011;38827;53.024;6.596;2023-07-29T15:19:56;2.60;;;0.80;;
52962;SDS011;38827;53.024;6.596;2023-07-29T15:22:22;3.20;;;0.80;;
52962;SDS011;38827;53.024;6.596;2023-07-29T15:24:48;1.10;;;0.90;;
52962;SDS011;38827;53.024;6.596;2023-07-29T15:27:33;3.17;;;0.93;;
52962;SDS011;38827;53.024;6.596;2023-07-29T15:32:32;1.00;;;0.50;;
52962;SDS011;38827;53.024;6.596;2023-07-29T15:39:25;1.38;;;0.88;;
52962;SDS011;38827;53.024;6.596;2023-07-29T15:49:22;2.38;;;0.70;;
52962;SDS011;38827;53.024;6.596;2023-07-29T15:52:07;2.80;;;0.80;;
52962;SDS011;38827;53.024;6.596;2023-07-29T16:00:01;2.28;;;0.85;;
52962;SDS011;38827;53.024;6.596;2023-07-29T16:02:35;1.20;;;1.10;;
52962;SDS011;38827;53.024;6.596;2023-07-29T16:05:10;1.90;;;0.80;;
52962;SDS011;38827;53.024;6.596;2023-07-29T16:07:39;1.55;;;0.77;;
52962;SDS011;38827;53.024;6.596;2023-07-29T16:10:04;1.23;;;0.60;;
52962;SDS011;38827;53.024;6.596;2023-07-29T16:12:31;1.85;;;0.80;;
52962;SDS011;38827;53.024;6.596;2023-07-29T16:15:04;1.55;;;0.77;;
52962;SDS011;38827;53.024;6.596;2023-07-29T16:17:31;0.98;;;0.50;;
52962;SDS011;38827;53.024;6.596;2023-07-29T16:19:58;1.03;;;0.60;;
52962;SDS011;38827;53.024;6.596;2023-07-29T16:22:29;3.83;;;0.88;;
52962;SDS011;38827;53.024;6.596;2023-07-29T16:24:55;1.97;;;0.70;;
52962;SDS011;38827;53.024;6.596;2023-07-29T16:27:20;2.47;;;0.93;;
52962;SDS011;38827;53.024;6.596;2023-07-29T16:29:48;7.95;;;1.02;;
52962;SDS011;38827;53.024;6.596;2023-07-29T16:32:14;3.20;;;0.87;;
52962;SDS011;38827;53.024;6.596;2023-07-29T16:34:48;2.55;;;0.93;;
52962;SDS011;38827;53.024;6.596;2023-07-29T16:37:17;2.57;;;1.00;;
52962;SDS011;38827;53.024;6.596;2023-07-29T16:39:45;2.78;;;0.80;;
52962;SDS011;38827;53.024;6.596;2023-07-29T16:42:11;1.30;;;0.60;;
52962;SDS011;38827;53.024;6.596;2023-07-29T16:44:37;1.42;;;0.68;;
52962;SDS011;38827;53.024;6.596;2023-07-29T16:47:05;1.65;;;0.80;;
52962;SDS011;38827;53.024;6.596;2023-07-29T16:49:31;2.57;;;0.60;;
52962;SDS011;38827;53.024;6.596;2023-07-29T16:51:56;2.00;;;0.70;;
52962;SDS011;38827;53.024;6.596;2023-07-29T16:54:23;2.67;;;0.70;;
52962;SDS011;38827;53.024;6.596;2023-07-29T16:56:48;1.90;;;0.90;;
52962;SDS011;38827;53.024;6.596;2023-07-29T16:59:16;1.88;;;0.75;;
52962;SDS011;38827;53.024;6.596;2023-07-29T17:01:42;0.90;;;0.70;;
52962;SDS011;38827;53.024;6.596;2023-07-29T17:04:07;0.67;;;0.60;;
52962;SDS011;38827;53.024;6.596;2023-07-29T17:06:36;1.90;;;0.53;;
52962;SDS011;38827;53.024;6.596;2023-07-29T17:17:01;2.53;;;0.70;;
52962;SDS011;38827;53.024;6.596;2023-07-29T17:19:56;2.85;;;0.70;;
52962;SDS011;38827;53.024;6.596;2023-07-29T17:22:24;1.40;;;0.70;;
52962;SDS011;38827;53.024;6.596;2023-07-29T17:24:57;1.27;;;0.60;;
52962;SDS011;38827;53.024;6.596;2023-07-29T17:45:02;1.95;;;1.13;;
52962;SDS011;38827;53.024;6.596;2023-07-29T17:47:28;2.10;;;1.00;;
52962;SDS011;38827;53.024;6.596;2023-07-29T17:50:04;2.03;;;0.97;;
52962;SDS011;38827;53.024;6.596;2023-07-29T17:52:30;3.10;;;0.98;;
52962;SDS011;38827;53.024;6.596;2023-07-29T17:58:58;2.33;;;0.98;;
52962;SDS011;38827;53.024;6.596;2023-07-29T18:07:13;1.60;;;1.00;;
52962;SDS011;38827;53.024;6.596;2023-07-29T18:09:39;1.63;;;1.00;;
52962;SDS011;38827;53.024;6.596;2023-07-29T18:12:04;2.77;;;1.10;;
52962;SDS011;38827;53.024;6.596;2023-07-29T18:14:31;2.13;;;1.17;;
52962;SDS011;38827;53.024;6.596;2023-07-29T18:16:56;2.30;;;1.27;;
52962;SDS011;38827;53.024;6.596;2023-07-29T18:19:22;3.80;;;1.30;;
52962;SDS011;38827;53.024;6.596;2023-07-29T18:21:49;2.63;;;1.35;;
52962;SDS011;38827;53.024;6.596;2023-07-29T18:24:15;4.53;;;1.70;;
52962;SDS011;38827;53.024;6.596;2023-07-29T18:26:41;5.70;;;1.50;;
52962;SDS011;38827;53.024;6.596;2023-07-29T18:29:06;3.50;;;1.60;;
52962;SDS011;38827;53.024;6.596;2023-07-29T18:31:41;3.53;;;1.48;;